Trig Lind — WC8177 — position and weather

sailwx.info

Track history (hours):
 
Tides and Currents Weather Stations Pressure Air Temp Water Temp Dewpoint Dewpoint Depression Visibility Wind Speed Wind Dir Waves Ship Positions

Trig Lind

Owner: JERICO PRODUCTS INC, PETALUMA, CA. More information available from US FCC via Universal Licensing System and Coast Guard Vessel Documentation Center.

Last reported at 2017-Dec-12 15:11 UTC. Time now 2017-Dec-15 20:05 UTC.
Position N 38°06' W 122°16'.

Length 22 m; draft 1.8 m.

Type: Tug. MMSI: 366508420.

Date/timePositionNaut miles runAvg speedWind from/ knotsBaromVisibWave heightAir tempDewpointWater temp
2017-Dec-12 15:11N 38°06' W 122°16'0 0.1
2017-Dec-12 14:59N 38°06' W 122°16'0 0.0
2017-Dec-12 14:29N 38°06' W 122°16'0 0.0
2017-Dec-12 13:48N 38°06' W 122°16'0 0.0
2017-Dec-12 13:30N 38°06' W 122°16'0 0.0
2017-Dec-12 12:59N 38°06' W 122°16'0 0.0
2017-Dec-12 12:30N 38°06' W 122°16'0 0.0
2017-Dec-12 12:00N 38°06' W 122°16'0 0.0
2017-Dec-12 11:30N 38°06' W 122°16'0 0.0
2017-Dec-12 11:00N 38°06' W 122°16'0 0.0
2017-Dec-12 10:30N 38°06' W 122°16'0 0.0
2017-Dec-12 10:00N 38°06' W 122°16'0 0.0
2017-Dec-12 09:30N 38°06' W 122°16'0 0.0
2017-Dec-12 09:00N 38°06' W 122°16'0 0.0
2017-Dec-12 08:30N 38°06' W 122°16'0 0.0
2017-Dec-12 08:00N 38°06' W 122°16'0 0.0
2017-Dec-12 07:30N 38°06' W 122°16'0 0.0
2017-Dec-12 07:00N 38°06' W 122°16'0 0.0
2017-Dec-12 06:29N 38°06' W 122°16'0 0.0
2017-Dec-12 04:58N 38°06' W 122°16'0 0.0
2017-Dec-12 04:19N 38°06' W 122°16'0 0.0
2017-Dec-12 04:00N 38°06' W 122°16'0 0.0
2017-Dec-12 03:30N 38°06' W 122°16'0 0.0
2017-Dec-12 02:41N 38°06' W 122°16'0 0.0
2017-Dec-12 02:30N 38°06' W 122°16'0 0.0
2017-Dec-12 02:00N 38°06' W 122°16'0 0.0
2017-Dec-12 01:30N 38°06' W 122°16'0 0.0
2017-Dec-12 00:59N 38°06' W 122°16'0 0.0
2017-Dec-12 00:30N 38°06' W 122°16'0 0.0
2017-Dec-11 23:59N 38°06' W 122°16'0 0.0
2017-Dec-11 23:30N 38°06' W 122°16'0 0.0
2017-Dec-11 22:50N 38°06' W 122°16'0 0.0
2017-Dec-11 22:27N 38°06' W 122°16'0 0.0
2017-Dec-11 20:50N 38°06' W 122°16'0 0.0
2017-Dec-11 20:17N 38°06' W 122°16'0 0.0
2017-Dec-11 19:53N 38°06' W 122°16'0 0.3
2017-Dec-11 19:30N 38°06' W 122°16'0 0.2
2017-Dec-11 19:00N 38°06' W 122°16'0 0.0
2017-Dec-11 18:30N 38°06' W 122°16'  
2017-Dec-04 10:05N 38°03' W 121°54'11 8.3
2017-Dec-04 08:47N 38°02' W 122°08'2 8.5
2017-Dec-04 08:30N 38°03' W 122°11'4 7.6
2017-Dec-04 08:00N 38°05' W 122°15'1 2.2
2017-Dec-04 07:29N 38°06' W 122°16'  
Track history (hours):
 
Tides and Currents Weather Stations Pressure Air Temp Water Temp Dewpoint Dewpoint Depression Visibility Wind Speed Wind Dir Waves Ship Positions

Trig Lind

Owner: JERICO PRODUCTS INC, PETALUMA, CA. More information available from US FCC via Universal Licensing System and Coast Guard Vessel Documentation Center.

Last reported at 2017-Dec-12 15:11 UTC. Time now 2017-Dec-15 20:05 UTC.
Position N 38°06' W 122°16'.

Length 22 m; draft 1.8 m.

Type: Tug. MMSI: 366508420.

Date/timePositionNaut miles runAvg speedWind from/ knotsBaromVisibWave heightAir tempDewpointWater temp
2017-Dec-12 15:11N 38°06' W 122°16'0 0.1
2017-Dec-12 14:59N 38°06' W 122°16'0 0.0
2017-Dec-12 14:29N 38°06' W 122°16'0 0.0
2017-Dec-12 13:48N 38°06' W 122°16'0 0.0
2017-Dec-12 13:30N 38°06' W 122°16'0 0.0
2017-Dec-12 12:59N 38°06' W 122°16'0 0.0
2017-Dec-12 12:30N 38°06' W 122°16'0 0.0
2017-Dec-12 12:00N 38°06' W 122°16'0 0.0
2017-Dec-12 11:30N 38°06' W 122°16'0 0.0
2017-Dec-12 11:00N 38°06' W 122°16'0 0.0
2017-Dec-12 10:30N 38°06' W 122°16'0 0.0
2017-Dec-12 10:00N 38°06' W 122°16'0 0.0
2017-Dec-12 09:30N 38°06' W 122°16'0 0.0
2017-Dec-12 09:00N 38°06' W 122°16'0 0.0
2017-Dec-12 08:30N 38°06' W 122°16'0 0.0
2017-Dec-12 08:00N 38°06' W 122°16'0 0.0
2017-Dec-12 07:30N 38°06' W 122°16'0 0.0
2017-Dec-12 07:00N 38°06' W 122°16'0 0.0
2017-Dec-12 06:29N 38°06' W 122°16'0 0.0
2017-Dec-12 04:58N 38°06' W 122°16'0 0.0
2017-Dec-12 04:19N 38°06' W 122°16'0 0.0
2017-Dec-12 04:00N 38°06' W 122°16'0 0.0
2017-Dec-12 03:30N 38°06' W 122°16'0 0.0
2017-Dec-12 02:41N 38°06' W 122°16'0 0.0
2017-Dec-12 02:30N 38°06' W 122°16'0 0.0
2017-Dec-12 02:00N 38°06' W 122°16'0 0.0
2017-Dec-12 01:30N 38°06' W 122°16'0 0.0
2017-Dec-12 00:59N 38°06' W 122°16'0 0.0
2017-Dec-12 00:30N 38°06' W 122°16'0 0.0
2017-Dec-11 23:59N 38°06' W 122°16'0 0.0
2017-Dec-11 23:30N 38°06' W 122°16'0 0.0
2017-Dec-11 22:50N 38°06' W 122°16'0 0.0
2017-Dec-11 22:27N 38°06' W 122°16'0 0.0
2017-Dec-11 20:50N 38°06' W 122°16'0 0.0
2017-Dec-11 20:17N 38°06' W 122°16'0 0.0
2017-Dec-11 19:53N 38°06' W 122°16'0 0.3
2017-Dec-11 19:30N 38°06' W 122°16'0 0.2
2017-Dec-11 19:00N 38°06' W 122°16'0 0.0
2017-Dec-11 18:30N 38°06' W 122°16'  
2017-Dec-04 10:05N 38°03' W 121°54'11 8.3
2017-Dec-04 08:47N 38°02' W 122°08'2 8.5
2017-Dec-04 08:30N 38°03' W 122°11'4 7.6
2017-Dec-04 08:00N 38°05' W 122°15'1 2.2
2017-Dec-04 07:29N 38°06' W 122°16'  

Dump ship's entire track history